KBED/BED METAR and TAF weather

Enter ICAO airport designator
Station Type Date Time Source
KBED METAR 2022/11/30 10:51 UTC NOAA

KBED 301051Z AUTO 00000KT 10SM OVC036 02/M01 A3020 RMK AO2 SLP241 T00221011


Station Type Date Time Source
KBED Decoded METAR 2022/11/30 10:51 UTC NOAA

BEDFORD HANSCOM FIELD, MA, United States (KBED) 42-28N 071-18W 50M
Nov 30, 2022 - 05:51 AM EST / 2022.11.30 1051 UTC
Wind: Calm:0
Visibility: 10 mile(s):0
Sky conditions: overcast
Temperature: 36.0 F (2.2 C)
Dew Point: 30.0 F (-1.1 C)
Relative Humidity: 78%
Pressure (altimeter): 30.2 in. Hg (1022 hPa)
ob: KBED 301051Z AUTO 00000KT 10SM OVC036 02/M01 A3020 RMK AO2 SLP241 T00221011
cycle: 11

Station Type Date Time Source
KBED TAF 2022/11/30 12:30 UTC NOAA

TAF KBED 301127Z 3012/0112 13005KT P6SM OVC025
FM301700 15012G24KT P6SM OVC015
FM302000 17016G32KT 3SM -RA BR OVC010
FM302200 17019G40KT 2SM +RA BR OVC010
FM010100 20017G37KT 3SM BR VCSH OVC035
FM010300 25015G20KT P6SM BKN060

Example: see airport list